sensor_id;sensor_type;location;lat;lon;timestamp;pressure;altitude;pressure_sealevel;temperature;humidity
63493;BME280;49638;47.526;10.028;2023-08-01T00:02:41;91100.88;;;17.31;69.17
63493;BME280;49638;47.526;10.028;2023-08-01T00:05:42;91093.44;;;17.42;68.67
63493;BME280;49638;47.526;10.028;2023-08-01T00:08:45;91102.00;;;17.53;68.39
63493;BME280;49638;47.526;10.028;2023-08-01T00:11:45;91094.63;;;17.49;68.34
63493;BME280;49638;47.526;10.028;2023-08-01T00:14:46;91092.00;;;17.58;67.84
63493;BME280;49638;47.526;10.028;2023-08-01T00:17:46;91086.06;;;17.61;67.79
63493;BME280;49638;47.526;10.028;2023-08-01T00:20:46;91085.47;;;17.64;67.52
63493;BME280;49638;47.526;10.028;2023-08-01T00:23:47;91085.56;;;17.59;67.26
63493;BME280;49638;47.526;10.028;2023-08-01T00:26:47;91074.88;;;17.59;67.23
63493;BME280;49638;47.526;10.028;2023-08-01T00:29:47;91069.25;;;17.61;67.07
63493;BME280;49638;47.526;10.028;2023-08-01T00:32:48;91066.25;;;17.62;66.78
63493;BME280;49638;47.526;10.028;2023-08-01T00:35:53;91062.53;;;17.63;64.97
63493;BME280;49638;47.526;10.028;2023-08-01T00:38:53;91060.50;;;17.69;66.41
63493;BME280;49638;47.526;10.028;2023-08-01T00:41:54;91054.56;;;17.72;66.11
63493;BME280;49638;47.526;10.028;2023-08-01T00:44:54;91059.44;;;17.70;66.26
63493;BME280;49638;47.526;10.028;2023-08-01T00:47:54;91054.75;;;17.76;66.12
63493;BME280;49638;47.526;10.028;2023-08-01T00:50:56;91051.28;;;17.75;66.25
63493;BME280;49638;47.526;10.028;2023-08-01T00:53:57;91042.47;;;17.74;66.39
63493;BME280;49638;47.526;10.028;2023-08-01T00:56:58;91028.94;;;17.71;66.59
63493;BME280;49638;47.526;10.028;2023-08-01T00:59:59;91026.75;;;17.73;66.40
63493;BME280;49638;47.526;10.028;2023-08-01T01:02:59;91021.22;;;17.69;66.13
63493;BME280;49638;47.526;10.028;2023-08-01T01:06:26;91017.34;;;17.76;64.05
63493;BME280;49638;47.526;10.028;2023-08-01T01:09:29;90996.75;;;17.76;65.79
63493;BME280;49638;47.526;10.028;2023-08-01T01:12:31;90973.59;;;17.71;65.94
63493;BME280;49638;47.526;10.028;2023-08-01T01:15:32;90967.97;;;17.73;65.58
63493;BME280;49638;47.526;10.028;2023-08-01T01:18:32;90970.22;;;17.80;65.49
63493;BME280;49638;47.526;10.028;2023-08-01T01:21:34;90973.22;;;17.78;65.21
63493;BME280;49638;47.526;10.028;2023-08-01T01:24:36;90958.91;;;17.83;65.44
63493;BME280;49638;47.526;10.028;2023-08-01T01:27:37;90956.56;;;17.81;64.87
63493;BME280;49638;47.526;10.028;2023-08-01T01:30:38;90944.16;;;17.85;64.43
63493;BME280;49638;47.526;10.028;2023-08-01T01:33:39;90941.38;;;17.90;64.54
63493;BME280;49638;47.526;10.028;2023-08-01T01:36:39;90929.22;;;17.84;64.90
63493;BME280;49638;47.526;10.028;2023-08-01T01:39:40;90932.38;;;17.86;64.74
63493;BME280;49638;47.526;10.028;2023-08-01T01:42:40;90927.84;;;17.87;64.92
63493;BME280;49638;47.526;10.028;2023-08-01T01:45:40;90901.84;;;17.79;64.64
63493;BME280;49638;47.526;10.028;2023-08-01T01:48:40;90896.06;;;17.85;64.30
63493;BME280;49638;47.526;10.028;2023-08-01T01:51:42;90905.53;;;17.91;64.44
63493;BME280;49638;47.526;10.028;2023-08-01T01:54:42;90877.50;;;17.80;64.34
63493;BME280;49638;47.526;10.028;2023-08-01T01:57:43;90885.97;;;17.82;64.76
63493;BME280;49638;47.526;10.028;2023-08-01T02:00:43;90885.19;;;17.82;65.39
63493;BME280;49638;47.526;10.028;2023-08-01T02:03:43;90889.25;;;17.79;65.23
63493;BME280;49638;47.526;10.028;2023-08-01T02:06:43;90887.69;;;17.78;64.95
63493;BME280;49638;47.526;10.028;2023-08-01T02:09:44;90887.19;;;17.76;65.06
63493;BME280;49638;47.526;10.028;2023-08-01T02:12:44;90888.25;;;17.75;64.95
63493;BME280;49638;47.526;10.028;2023-08-01T02:15:44;90884.63;;;17.71;65.46
63493;BME280;49638;47.526;10.028;2023-08-01T02:18:45;90877.22;;;17.68;65.94
63493;BME280;49638;47.526;10.028;2023-08-01T02:21:45;90879.06;;;17.59;66.50
63493;BME280;49638;47.526;10.028;2023-08-01T02:24:45;90887.38;;;17.57;66.18
63493;BME280;49638;47.526;10.028;2023-08-01T02:27:45;90882.31;;;17.56;66.66
63493;BME280;49638;47.526;10.028;2023-08-01T02:30:46;90888.91;;;17.49;68.03
63493;BME280;49638;47.526;10.028;2023-08-01T02:33:46;90873.91;;;17.40;68.91
63493;BME280;49638;47.526;10.028;2023-08-01T02:36:46;90875.41;;;17.32;69.77
63493;BME280;49638;47.526;10.028;2023-08-01T02:39:46;90882.59;;;17.23;70.19
63493;BME280;49638;47.526;10.028;2023-08-01T02:42:47;90877.09;;;17.19;71.12
63493;BME280;49638;47.526;10.028;2023-08-01T02:45:47;90907.06;;;17.16;71.62
63493;BME280;49638;47.526;10.028;2023-08-01T02:48:48;90910.75;;;17.07;72.16
63493;BME280;49638;47.526;10.028;2023-08-01T02:51:48;90916.41;;;17.05;72.55
63493;BME280;49638;47.526;10.028;2023-08-01T02:54:48;90907.72;;;16.99;72.80
63493;BME280;49638;47.526;10.028;2023-08-01T02:57:49;90884.09;;;16.93;72.62
63493;BME280;49638;47.526;10.028;2023-08-01T03:00:49;90905.31;;;16.98;72.07
63493;BME280;49638;47.526;10.028;2023-08-01T03:03:50;90899.19;;;16.97;72.15
63493;BME280;49638;47.526;10.028;2023-08-01T03:06:50;90909.00;;;17.02;72.63
63493;BME280;49638;47.526;10.028;2023-08-01T03:09:50;90897.72;;;16.91;73.57
63493;BME280;49638;47.526;10.028;2023-08-01T03:12:50;90902.41;;;16.86;74.23
63493;BME280;49638;47.526;10.028;2023-08-01T03:15:51;90918.41;;;16.86;74.77
63493;BME280;49638;47.526;10.028;2023-08-01T03:18:51;90910.69;;;16.84;74.99
63493;BME280;49638;47.526;10.028;2023-08-01T03:21:52;90909.25;;;16.78;75.53
63493;BME280;49638;47.526;10.028;2023-08-01T03:24:52;90927.31;;;16.81;75.04
63493;BME280;49638;47.526;10.028;2023-08-01T03:27:52;90912.28;;;16.85;74.92
63493;BME280;49638;47.526;10.028;2023-08-01T03:30:54;90912.91;;;16.82;74.59
63493;BME280;49638;47.526;10.028;2023-08-01T03:33:55;90911.19;;;16.86;74.21
63493;BME280;49638;47.526;10.028;2023-08-01T03:36:55;90928.56;;;16.97;73.67
63493;BME280;49638;47.526;10.028;2023-08-01T03:39:55;90926.84;;;17.01;73.72
63493;BME280;49638;47.526;10.028;2023-08-01T03:42:56;90917.88;;;16.97;73.51
63493;BME280;49638;47.526;10.028;2023-08-01T03:45:56;90932.88;;;17.07;73.56
63493;BME280;49638;47.526;10.028;2023-08-01T03:48:56;90922.81;;;17.04;74.18
63493;BME280;49638;47.526;10.028;2023-08-01T03:51:56;90924.41;;;17.05;73.39
63493;BME280;49638;47.526;10.028;2023-08-01T03:54:57;90922.41;;;17.11;73.24
63493;BME280;49638;47.526;10.028;2023-08-01T03:57:57;90911.13;;;17.14;72.83
63493;BME280;49638;47.526;10.028;2023-08-01T04:00:57;90918.53;;;17.17;72.60
63493;BME280;49638;47.526;10.028;2023-08-01T04:03:57;90943.34;;;17.17;73.00
63493;BME280;49638;47.526;10.028;2023-08-01T04:06:58;90944.13;;;17.18;73.67
63493;BME280;49638;47.526;10.028;2023-08-01T04:09:58;90936.72;;;17.15;74.00
63493;BME280;49638;47.526;10.028;2023-08-01T04:12:58;90941.09;;;17.11;74.34
63493;BME280;49638;47.526;10.028;2023-08-01T04:15:58;90940.28;;;17.10;74.68
63493;BME280;49638;47.526;10.028;2023-08-01T04:18:59;90929.94;;;17.09;74.49
63493;BME280;49638;47.526;10.028;2023-08-01T04:21:59;90937.44;;;17.07;74.74
63493;BME280;49638;47.526;10.028;2023-08-01T04:25:01;90930.03;;;17.03;74.58
63493;BME280;49638;47.526;10.028;2023-08-01T04:28:01;90932.09;;;17.07;74.68
63493;BME280;49638;47.526;10.028;2023-08-01T04:31:01;90932.09;;;17.07;74.79
63493;BME280;49638;47.526;10.028;2023-08-01T04:34:02;90934.59;;;17.03;75.14
63493;BME280;49638;47.526;10.028;2023-08-01T04:37:02;90942.00;;;17.06;75.24
63493;BME280;49638;47.526;10.028;2023-08-01T04:40:03;90946.56;;;17.06;75.66
63493;BME280;49638;47.526;10.028;2023-08-01T04:43:03;90941.03;;;17.02;76.05
63493;BME280;49638;47.526;10.028;2023-08-01T04:46:03;90939.38;;;16.92;76.26
63493;BME280;49638;47.526;10.028;2023-08-01T04:49:04;90953.31;;;16.89;76.40
63493;BME280;49638;47.526;10.028;2023-08-01T04:52:04;90938.84;;;16.90;76.92
63493;BME280;49638;47.526;10.028;2023-08-01T04:55:05;90946.28;;;16.93;77.20
63493;BME280;49638;47.526;10.028;2023-08-01T04:58:06;90932.44;;;16.91;77.44
63493;BME280;49638;47.526;10.028;2023-08-01T05:01:06;90945.47;;;16.93;77.57
63493;BME280;49638;47.526;10.028;2023-08-01T05:04:06;90943.59;;;16.93;77.64
63493;BME280;49638;47.526;10.028;2023-08-01T05:07:07;90939.16;;;16.89;77.45
63493;BME280;49638;47.526;10.028;2023-08-01T05:10:07;90939.38;;;16.92;77.51
63493;BME280;49638;47.526;10.028;2023-08-01T05:13:08;90948.25;;;16.88;77.58
63493;BME280;49638;47.526;10.028;2023-08-01T05:16:08;90946.59;;;16.92;77.69
63493;BME280;49638;47.526;10.028;2023-08-01T05:19:08;90929.56;;;16.88;77.60
63493;BME280;49638;47.526;10.028;2023-08-01T05:22:08;90944.78;;;16.87;77.87
63493;BME280;49638;47.526;10.028;2023-08-01T05:25:09;90955.66;;;16.91;78.27
63493;BME280;49638;47.526;10.028;2023-08-01T05:28:09;90955.19;;;16.89;78.21
63493;BME280;49638;47.526;10.028;2023-08-01T05:31:09;90943.81;;;16.83;78.16
63493;BME280;49638;47.526;10.028;2023-08-01T05:34:10;90960.41;;;16.94;78.11
63493;BME280;49638;47.526;10.028;2023-08-01T05:37:10;90940.44;;;16.91;78.36
63493;BME280;49638;47.526;10.028;2023-08-01T05:40:11;90929.09;;;16.86;78.93
63493;BME280;49638;47.526;10.028;2023-08-01T05:43:11;90933.84;;;16.89;78.78
63493;BME280;49638;47.526;10.028;2023-08-01T05:46:11;90944.69;;;16.92;79.78
63493;BME280;49638;47.526;10.028;2023-08-01T05:49:11;90947.97;;;16.89;80.03
63493;BME280;49638;47.526;10.028;2023-08-01T05:52:12;90923.56;;;16.82;79.93
63493;BME280;49638;47.526;10.028;2023-08-01T05:55:12;90934.72;;;16.84;80.17
63493;BME280;49638;47.526;10.028;2023-08-01T05:58:12;90940.84;;;16.85;80.34
63493;BME280;49638;47.526;10.028;2023-08-01T06:01:13;90929.38;;;16.84;80.51
63493;BME280;49638;47.526;10.028;2023-08-01T06:04:14;90923.06;;;16.80;80.75
63493;BME280;49638;47.526;10.028;2023-08-01T06:07:14;90928.59;;;16.84;81.13
63493;BME280;49638;47.526;10.028;2023-08-01T06:10:14;90909.53;;;16.76;81.08
63493;BME280;49638;47.526;10.028;2023-08-01T06:13:15;90908.63;;;16.81;81.30
63493;BME280;49638;47.526;10.028;2023-08-01T06:16:15;90921.19;;;16.81;81.38
63493;BME280;49638;47.526;10.028;2023-08-01T06:19:15;90912.19;;;16.76;82.01
63493;BME280;49638;47.526;10.028;2023-08-01T06:22:16;90914.59;;;16.78;82.13
63493;BME280;49638;47.526;10.028;2023-08-01T06:25:16;90921.31;;;16.75;82.02
63493;BME280;49638;47.526;10.028;2023-08-01T06:28:16;90921.31;;;16.75;82.59
63493;BME280;49638;47.526;10.028;2023-08-01T06:31:16;90923.44;;;16.73;83.17
63493;BME280;49638;47.526;10.028;2023-08-01T06:34:17;90912.78;;;16.73;83.41
63493;BME280;49638;47.526;10.028;2023-08-01T06:37:17;90922.09;;;16.76;83.84
63493;BME280;49638;47.526;10.028;2023-08-01T06:40:17;90915.19;;;16.75;84.32
63493;BME280;49638;47.526;10.028;2023-08-01T06:43:17;90915.19;;;16.75;84.44
63493;BME280;49638;47.526;10.028;2023-08-01T06:46:18;90923.06;;;16.66;84.58
63493;BME280;49638;47.526;10.028;2023-08-01T06:49:18;90933.34;;;16.73;84.74
63493;BME280;49638;47.526;10.028;2023-08-01T06:52:18;90928.72;;;16.65;85.13
63493;BME280;49638;47.526;10.028;2023-08-01T06:55:19;90931.47;;;16.60;85.22
63493;BME280;49638;47.526;10.028;2023-08-01T06:58:19;90913.31;;;16.62;85.04
63493;BME280;49638;47.526;10.028;2023-08-01T07:01:19;90925.91;;;16.70;85.40
63493;BME280;49638;47.526;10.028;2023-08-01T07:04:19;90916.63;;;16.67;85.61
63493;BME280;49638;47.526;10.028;2023-08-01T07:07:20;90917.13;;;16.69;85.73
63493;BME280;49638;47.526;10.028;2023-08-01T07:10:20;90904.09;;;16.68;85.71
63493;BME280;49638;47.526;10.028;2023-08-01T07:13:20;90917.31;;;16.73;85.70
63493;BME280;49638;47.526;10.028;2023-08-01T07:16:22;90897.16;;;16.67;85.65
63493;BME280;49638;47.526;10.028;2023-08-01T07:19:23;90898.34;;;16.61;85.85
63493;BME280;49638;47.526;10.028;2023-08-01T07:22:23;90918.03;;;16.65;86.08
63493;BME280;49638;47.526;10.028;2023-08-01T07:25:23;90894.63;;;16.62;86.30
63493;BME280;49638;47.526;10.028;2023-08-01T07:28:23;90885.34;;;16.59;86.16
63493;BME280;49638;47.526;10.028;2023-08-01T07:31:24;90875.63;;;16.63;86.08
63493;BME280;49638;47.526;10.028;2023-08-01T07:34:24;90874.06;;;16.76;85.89
63493;BME280;49638;47.526;10.028;2023-08-01T07:37:24;90872.56;;;16.84;86.23
63493;BME280;49638;47.526;10.028;2023-08-01T07:40:24;90881.28;;;16.98;86.61
63493;BME280;49638;47.526;10.028;2023-08-01T07:43:25;90880.50;;;16.97;86.47
63493;BME280;49638;47.526;10.028;2023-08-01T07:46:26;90887.91;;;17.00;86.67
63493;BME280;49638;47.526;10.028;2023-08-01T07:49:26;90899.88;;;17.03;86.77
63493;BME280;49638;47.526;10.028;2023-08-01T07:52:26;90890.91;;;16.99;86.65
63493;BME280;49638;47.526;10.028;2023-08-01T07:55:26;90880.41;;;17.02;86.62
63493;BME280;49638;47.526;10.028;2023-08-01T07:58:28;90856.81;;;16.96;86.30
63493;BME280;49638;47.526;10.028;2023-08-01T08:01:28;90849.91;;;16.81;86.20
63493;BME280;49638;47.526;10.028;2023-08-01T08:04:28;90868.59;;;16.81;86.77
63493;BME280;49638;47.526;10.028;2023-08-01T08:07:28;90858.63;;;16.73;86.64
63493;BME280;49638;47.526;10.028;2023-08-01T08:10:29;90862.59;;;16.75;86.82
63493;BME280;49638;47.526;10.028;2023-08-01T08:13:29;90856.47;;;16.75;86.82
63493;BME280;49638;47.526;10.028;2023-08-01T08:16:29;90831.75;;;16.69;87.20
63493;BME280;49638;47.526;10.028;2023-08-01T08:19:30;90850.84;;;16.76;87.83
63493;BME280;49638;47.526;10.028;2023-08-01T08:22:30;90823.66;;;16.61;87.97
63493;BME280;49638;47.526;10.028;2023-08-01T08:25:30;90843.22;;;16.70;88.25
63493;BME280;49638;47.526;10.028;2023-08-01T08:28:32;90848.25;;;16.71;87.74
63493;BME280;49638;47.526;10.028;2023-08-01T08:31:33;90853.81;;;16.75;88.38
63493;BME280;49638;47.526;10.028;2023-08-01T08:34:34;90846.19;;;16.68;88.19
63493;BME280;49638;47.526;10.028;2023-08-01T08:37:34;90859.72;;;16.72;88.27
63493;BME280;49638;47.526;10.028;2023-08-01T08:40:35;90846.19;;;16.68;87.75
63493;BME280;49638;47.526;10.028;2023-08-01T08:43:41;90853.59;;;16.71;88.06
63493;BME280;49638;47.526;10.028;2023-08-01T08:46:43;90849.53;;;16.74;87.60
63493;BME280;49638;47.526;10.028;2023-08-01T08:49:45;90848.72;;;16.73;87.32
63493;BME280;49638;47.526;10.028;2023-08-01T08:52:46;90843.78;;;16.81;87.95
63493;BME280;49638;47.526;10.028;2023-08-01T08:55:46;90849.03;;;16.86;88.12
63493;BME280;49638;47.526;10.028;2023-08-01T08:58:47;90844.47;;;16.86;88.40
63493;BME280;49638;47.526;10.028;2023-08-01T09:01:48;90847.88;;;17.00;88.00
63493;BME280;49638;47.526;10.028;2023-08-01T09:04:48;90836.78;;;17.07;87.47
63493;BME280;49638;47.526;10.028;2023-08-01T09:07:49;90821.13;;;17.14;87.69
63493;BME280;49638;47.526;10.028;2023-08-01T09:10:51;90824.47;;;17.20;87.37
63493;BME280;49638;47.526;10.028;2023-08-01T09:13:52;90833.31;;;17.29;87.82
63493;BME280;49638;47.526;10.028;2023-08-01T09:16:53;90845.44;;;17.35;87.49
63493;BME280;49638;47.526;10.028;2023-08-01T09:20:06;90849.56;;;17.41;89.54
63493;BME280;49638;47.526;10.028;2023-08-01T09:23:09;90849.44;;;17.46;88.57
63493;BME280;49638;47.526;10.028;2023-08-01T09:26:16;90852.47;;;17.54;89.82
63493;BME280;49638;47.526;10.028;2023-08-01T09:29:17;90859.75;;;17.62;89.12
63493;BME280;49638;47.526;10.028;2023-08-01T09:32:18;90858.63;;;17.63;89.15
63493;BME280;49638;47.526;10.028;2023-08-01T09:35:18;90876.09;;;17.60;89.22
63493;BME280;49638;47.526;10.028;2023-08-01T09:38:19;90891.63;;;17.58;88.99
63493;BME280;49638;47.526;10.028;2023-08-01T09:41:20;90894.53;;;17.48;89.14
63493;BME280;49638;47.526;10.028;2023-08-01T09:44:20;90886.78;;;17.38;89.20
63493;BME280;49638;47.526;10.028;2023-08-01T09:47:20;90892.25;;;17.33;89.29
63493;BME280;49638;47.526;10.028;2023-08-01T09:50:22;90895.00;;;17.19;89.52
63493;BME280;49638;47.526;10.028;2023-08-01T09:53:23;90876.59;;;17.17;89.46
63493;BME280;49638;47.526;10.028;2023-08-01T09:56:26;90884.47;;;17.00;89.78
63493;BME280;49638;47.526;10.028;2023-08-01T09:59:27;90913.75;;;16.91;90.05
63493;BME280;49638;47.526;10.028;2023-08-01T10:02:30;90909.63;;;16.85;90.19
63493;BME280;49638;47.526;10.028;2023-08-01T10:05:34;90919.09;;;16.77;90.66
63493;BME280;49638;47.526;10.028;2023-08-01T10:08:35;90921.31;;;16.75;90.91
63493;BME280;49638;47.526;10.028;2023-08-01T10:11:38;90926.31;;;16.63;91.19
63493;BME280;49638;47.526;10.028;2023-08-01T10:14:39;90921.31;;;16.62;91.50
63493;BME280;49638;47.526;10.028;2023-08-01T10:17:40;90929.41;;;16.56;91.99
63493;BME280;49638;47.526;10.028;2023-08-01T10:20:41;90940.56;;;16.59;92.11
63493;BME280;49638;47.526;10.028;2023-08-01T10:23:43;90932.06;;;16.56;92.23
63493;BME280;49638;47.526;10.028;2023-08-01T10:26:45;90910.84;;;16.51;92.22
63493;BME280;49638;47.526;10.028;2023-08-01T10:29:56;90923.47;;;16.60;93.91
63493;BME280;49638;47.526;10.028;2023-08-01T10:32:58;90916.78;;;16.48;92.38
63493;BME280;49638;47.526;10.028;2023-08-01T10:35:58;90928.91;;;16.54;92.44
63493;BME280;49638;47.526;10.028;2023-08-01T10:39:00;90927.91;;;16.50;92.71
63493;BME280;49638;47.526;10.028;2023-08-01T10:42:04;90933.06;;;16.47;92.95
63493;BME280;49638;47.526;10.028;2023-08-01T10:45:05;90939.47;;;16.46;95.64
63493;BME280;49638;47.526;10.028;2023-08-01T10:48:08;90945.13;;;16.44;92.47
63493;BME280;49638;47.526;10.028;2023-08-01T10:51:09;90933.16;;;16.42;92.81
63493;BME280;49638;47.526;10.028;2023-08-01T10:54:22;90923.28;;;16.42;94.21
63493;BME280;49638;47.526;10.028;2023-08-01T10:57:23;90911.06;;;16.41;92.92
63493;BME280;49638;47.526;10.028;2023-08-01T11:00:24;90914.78;;;16.54;92.39
63493;BME280;49638;47.526;10.028;2023-08-01T11:03:36;90906.56;;;16.64;94.37
63493;BME280;49638;47.526;10.028;2023-08-01T11:06:46;90903.97;;;16.87;92.66
63493;BME280;49638;47.526;10.028;2023-08-01T11:09:46;90902.22;;;16.82;92.97
63493;BME280;49638;47.526;10.028;2023-08-01T11:12:47;90920.03;;;17.09;92.51
63493;BME280;49638;47.526;10.028;2023-08-01T11:15:48;90933.16;;;17.19;92.27
63493;BME280;49638;47.526;10.028;2023-08-01T11:18:48;90915.72;;;17.22;92.11
63493;BME280;49638;47.526;10.028;2023-08-01T11:21:49;90929.56;;;17.24;92.12
63493;BME280;49638;47.526;10.028;2023-08-01T11:24:50;90933.63;;;17.21;91.71
63493;BME280;49638;47.526;10.028;2023-08-01T11:27:50;90935.03;;;17.19;91.18
63493;BME280;49638;47.526;10.028;2023-08-01T11:30:50;90932.84;;;17.21;91.38
63493;BME280;49638;47.526;10.028;2023-08-01T11:33:57;90924.59;;;17.09;90.23
63493;BME280;49638;47.526;10.028;2023-08-01T11:36:59;90947.16;;;17.02;90.61
63493;BME280;49638;47.526;10.028;2023-08-01T11:39:59;90948.38;;;16.83;90.27
63493;BME280;49638;47.526;10.028;2023-08-01T11:43:00;90950.44;;;16.58;90.38
63493;BME280;49638;47.526;10.028;2023-08-01T11:46:00;90963.09;;;16.52;90.33
63493;BME280;49638;47.526;10.028;2023-08-01T11:49:01;90953.72;;;16.41;90.38
63493;BME280;49638;47.526;10.028;2023-08-01T11:52:02;90965.56;;;16.35;90.92
63493;BME280;49638;47.526;10.028;2023-08-01T11:55:03;90965.16;;;16.28;91.24
63493;BME280;49638;47.526;10.028;2023-08-01T11:58:03;90975.63;;;16.11;91.62
63493;BME280;49638;47.526;10.028;2023-08-01T12:01:13;90970.88;;;16.07;92.92
63493;BME280;49638;47.526;10.028;2023-08-01T12:04:27;90967.72;;;16.05;91.80
63493;BME280;49638;47.526;10.028;2023-08-01T12:07:27;90985.44;;;15.96;91.79
63493;BME280;49638;47.526;10.028;2023-08-01T12:10:37;90997.19;;;15.95;93.32
63493;BME280;49638;47.526;10.028;2023-08-01T12:13:37;90978.53;;;15.95;92.30
63493;BME280;49638;47.526;10.028;2023-08-01T12:16:38;90970.06;;;15.93;92.56
63493;BME280;49638;47.526;10.028;2023-08-01T12:19:39;90971.25;;;15.87;92.97
63493;BME280;49638;47.526;10.028;2023-08-01T12:22:39;90947.66;;;15.94;93.17
63493;BME280;49638;47.526;10.028;2023-08-01T12:25:39;90947.88;;;16.12;92.58
63493;BME280;49638;47.526;10.028;2023-08-01T12:28:40;90950.94;;;16.19;92.75
63493;BME280;49638;47.526;10.028;2023-08-01T12:31:40;90964.38;;;16.41;92.82
63493;BME280;49638;47.526;10.028;2023-08-01T12:34:40;90965.75;;;16.52;92.95
63493;BME280;49638;47.526;10.028;2023-08-01T12:37:40;90952.13;;;16.54;92.69
63493;BME280;49638;47.526;10.028;2023-08-01T12:40:41;90954.88;;;16.63;92.23
63493;BME280;49638;47.526;10.028;2023-08-01T12:43:41;90965.69;;;16.58;92.11
63493;BME280;49638;47.526;10.028;2023-08-01T12:46:41;90953.91;;;16.45;92.10
63493;BME280;49638;47.526;10.028;2023-08-01T12:49:42;90960.63;;;16.42;92.36
63493;BME280;49638;47.526;10.028;2023-08-01T12:52:42;90962.41;;;16.47;92.58
63493;BME280;49638;47.526;10.028;2023-08-01T12:55:43;90947.28;;;16.42;92.62
63493;BME280;49638;47.526;10.028;2023-08-01T12:58:44;90940.00;;;16.48;92.08
63493;BME280;49638;47.526;10.028;2023-08-01T13:01:45;90930.09;;;16.48;92.34
63493;BME280;49638;47.526;10.028;2023-08-01T13:04:45;90915.00;;;16.58;92.42
63493;BME280;49638;47.526;10.028;2023-08-01T13:07:45;90929.38;;;16.70;92.56
63493;BME280;49638;47.526;10.028;2023-08-01T13:10:45;90926.84;;;16.79;92.48
63493;BME280;49638;47.526;10.028;2023-08-01T13:13:46;90925.13;;;16.83;92.19
63493;BME280;49638;47.526;10.028;2023-08-01T13:16:46;90926.69;;;16.98;92.08
63493;BME280;49638;47.526;10.028;2023-08-01T13:19:47;90933.38;;;17.09;92.25
63493;BME280;49638;47.526;10.028;2023-08-01T13:22:50;90920.41;;;17.16;92.35
63493;BME280;49638;47.526;10.028;2023-08-01T13:25:50;90913.88;;;17.22;91.77
63493;BME280;49638;47.526;10.028;2023-08-01T13:28:50;90930.53;;;17.28;91.66
63493;BME280;49638;47.526;10.028;2023-08-01T13:31:51;90919.38;;;17.26;91.24
63493;BME280;49638;47.526;10.028;2023-08-01T13:34:51;90915.44;;;17.23;90.90
63493;BME280;49638;47.526;10.028;2023-08-01T13:37:51;90906.50;;;17.28;91.24
63493;BME280;49638;47.526;10.028;2023-08-01T13:40:52;90919.56;;;17.30;90.39
63493;BME280;49638;47.526;10.028;2023-08-01T13:43:52;90932.59;;;17.31;90.16
63493;BME280;49638;47.526;10.028;2023-08-01T13:46:52;90945.06;;;17.36;90.30
63493;BME280;49638;47.526;10.028;2023-08-01T13:49:53;90948.72;;;17.40;89.66
63493;BME280;49638;47.526;10.028;2023-08-01T13:52:53;90942.59;;;17.39;89.61
63493;BME280;49638;47.526;10.028;2023-08-01T13:55:54;90951.06;;;17.41;89.53
63493;BME280;49638;47.526;10.028;2023-08-01T13:58:54;90953.63;;;17.46;89.66
63493;BME280;49638;47.526;10.028;2023-08-01T14:01:54;90942.03;;;17.51;89.86
63493;BME280;49638;47.526;10.028;2023-08-01T14:04:55;90944.69;;;17.51;89.69
63493;BME280;49638;47.526;10.028;2023-08-01T14:07:55;90917.91;;;17.42;89.76
63493;BME280;49638;47.526;10.028;2023-08-01T14:10:56;90934.38;;;17.36;89.51
63493;BME280;49638;47.526;10.028;2023-08-01T14:13:57;90934.25;;;17.41;89.56
63493;BME280;49638;47.526;10.028;2023-08-01T14:17:00;90929.34;;;17.34;89.28
63493;BME280;49638;47.526;10.028;2023-08-01T14:20:00;90932.00;;;17.34;89.71
63493;BME280;49638;47.526;10.028;2023-08-01T14:23:00;90942.88;;;17.38;89.24
63493;BME280;49638;47.526;10.028;2023-08-01T14:26:00;90940.94;;;17.30;89.34
63493;BME280;49638;47.526;10.028;2023-08-01T14:29:01;90935.78;;;17.33;89.44
63493;BME280;49638;47.526;10.028;2023-08-01T14:32:01;90939.28;;;17.42;89.28
63493;BME280;49638;47.526;10.028;2023-08-01T14:35:01;90937.88;;;17.45;89.39
63493;BME280;49638;47.526;10.028;2023-08-01T14:38:02;90940.28;;;17.46;89.71
63493;BME280;49638;47.526;10.028;2023-08-01T14:41:03;90928.41;;;17.39;89.59
63493;BME280;49638;47.526;10.028;2023-08-01T14:44:03;90952.22;;;17.26;89.83
63493;BME280;49638;47.526;10.028;2023-08-01T14:47:04;90943.84;;;17.19;89.34
63493;BME280;49638;47.526;10.028;2023-08-01T14:50:04;90949.19;;;17.19;89.81
63493;BME280;49638;47.526;10.028;2023-08-01T14:53:05;90933.66;;;17.08;89.58
63493;BME280;49638;47.526;10.028;2023-08-01T14:56:06;90969.34;;;17.12;89.82
63493;BME280;49638;47.526;10.028;2023-08-01T14:59:08;90946.56;;;17.06;90.22
63493;BME280;49638;47.526;10.028;2023-08-01T15:02:08;90950.09;;;17.01;90.06
63493;BME280;49638;47.526;10.028;2023-08-01T15:05:08;90958.41;;;16.99;90.50
63493;BME280;49638;47.526;10.028;2023-08-01T15:08:09;90960.81;;;16.87;90.61
63493;BME280;49638;47.526;10.028;2023-08-01T15:11:09;90981.38;;;16.87;90.85
63493;BME280;49638;47.526;10.028;2023-08-01T15:14:09;90978.00;;;16.81;90.78
63493;BME280;49638;47.526;10.028;2023-08-01T15:17:10;90970.41;;;16.74;90.93
63493;BME280;49638;47.526;10.028;2023-08-01T15:20:10;90964.47;;;16.64;90.69
63493;BME280;49638;47.526;10.028;2023-08-01T15:23:11;90961.31;;;16.62;90.91
63493;BME280;49638;47.526;10.028;2023-08-01T15:26:11;90960.13;;;16.54;91.13
63493;BME280;49638;47.526;10.028;2023-08-01T15:29:11;90958.06;;;16.51;90.93
63493;BME280;49638;47.526;10.028;2023-08-01T15:32:11;90958.47;;;16.44;91.00
63493;BME280;49638;47.526;10.028;2023-08-01T15:35:12;90948.00;;;16.34;91.09
63493;BME280;49638;47.526;10.028;2023-08-01T15:38:14;90961.41;;;16.29;91.64
63493;BME280;49638;47.526;10.028;2023-08-01T15:41:14;90961.53;;;16.24;91.59
63493;BME280;49638;47.526;10.028;2023-08-01T15:44:14;90975.13;;;16.22;92.09
63493;BME280;49638;47.526;10.028;2023-08-01T15:47:15;90978.97;;;16.16;91.75